createdAt,value
2017-12-21T00:01:40.133Z,93.94
2017-12-21T00:04:07.706Z,93.81
2017-12-21T00:06:35.237Z,93.89
2017-12-21T00:09:02.758Z,94.09
2017-12-21T00:11:30.277Z,94.09
2017-12-21T00:13:57.807Z,94.59
2017-12-21T00:16:25.333Z,94.78
2017-12-21T00:18:52.864Z,94.61
2017-12-21T00:21:20.382Z,94.67
2017-12-21T00:23:47.926Z,94.83
2017-12-21T00:26:15.451Z,94.62
2017-12-21T00:28:42.969Z,94.31
2017-12-21T00:31:10.499Z,94.68
2017-12-21T00:33:38.015Z,94.59
2017-12-21T00:36:05.567Z,94.38
2017-12-21T00:38:33.086Z,94.28
2017-12-21T00:41:00.607Z,94.24
2017-12-21T00:43:28.125Z,94.46
2017-12-21T00:46:07.489Z,94.70
2017-12-21T00:48:35.315Z,94.59
2017-12-21T00:51:02.846Z,94.28
2017-12-21T00:53:30.366Z,94.70
2017-12-21T00:55:57.889Z,94.49
2017-12-21T00:58:25.422Z,94.64
2017-12-21T01:00:52.947Z,94.57
2017-12-21T01:03:20.479Z,94.51
2017-12-21T01:05:47.997Z,94.65
2017-12-21T01:08:15.527Z,94.84
2017-12-21T01:10:43.058Z,94.94
2017-12-21T01:13:10.584Z,94.70
2017-12-21T01:15:38.095Z,94.65
2017-12-21T01:18:05.668Z,94.80
2017-12-21T01:20:33.192Z,94.80
2017-12-21T01:23:00.730Z,94.76
2017-12-21T01:25:28.247Z,95.01
2017-12-21T01:27:55.770Z,95.05
2017-12-21T01:30:23.294Z,94.87
2017-12-21T01:32:50.805Z,94.72
2017-12-21T01:35:18.319Z,94.83
2017-12-21T01:37:45.836Z,94.59
2017-12-21T01:40:13.353Z,94.71
2017-12-21T01:42:40.884Z,94.44
2017-12-21T01:45:09.207Z,94.66
2017-12-21T01:47:36.719Z,94.84
2017-12-21T01:50:04.243Z,94.73
2017-12-21T01:52:31.754Z,94.79
2017-12-21T01:54:59.265Z,94.81
2017-12-21T01:57:26.783Z,94.91
2017-12-21T01:59:54.297Z,94.78
2017-12-21T02:02:21.817Z,94.94
2017-12-21T02:04:49.339Z,94.84
2017-12-21T02:07:16.863Z,94.87
2017-12-21T02:09:44.387Z,94.67
2017-12-21T02:12:12.873Z,94.77
2017-12-21T02:14:40.388Z,94.82
2017-12-21T02:17:07.909Z,94.75
2017-12-21T02:19:35.430Z,94.75
2017-12-21T02:22:02.937Z,94.83
2017-12-21T02:24:30.453Z,95.16
2017-12-21T02:26:57.994Z,94.80
2017-12-21T02:29:25.516Z,94.90
2017-12-21T02:31:53.044Z,94.80
2017-12-21T02:34:20.572Z,94.83
2017-12-21T02:36:48.087Z,95.00
2017-12-21T02:39:15.600Z,94.87
2017-12-21T02:41:43.117Z,95.00
2017-12-21T02:44:10.637Z,94.98
2017-12-21T02:46:38.150Z,95.07
2017-12-21T02:49:05.666Z,94.79
2017-12-21T02:51:33.178Z,94.72
2017-12-21T02:54:00.692Z,94.83
2017-12-21T02:56:28.214Z,94.98
2017-12-21T02:58:55.726Z,94.93
2017-12-21T03:01:23.243Z,94.82
2017-12-21T03:03:50.764Z,94.62
2017-12-21T03:06:18.278Z,94.87
2017-12-21T03:08:45.776Z,94.88
2017-12-21T03:11:13.283Z,95.20
2017-12-21T03:13:40.799Z,94.80
2017-12-21T03:16:08.321Z,94.78
2017-12-21T03:18:35.859Z,94.68
2017-12-21T03:21:03.371Z,94.83
2017-12-21T03:23:30.893Z,94.98
2017-12-21T03:25:58.409Z,95.18
2017-12-21T03:28:25.924Z,95.57
2017-12-21T03:30:53.435Z,95.35
2017-12-21T03:33:20.942Z,95.57
2017-12-21T03:35:48.468Z,95.51
2017-12-21T03:38:15.974Z,95.33
2017-12-21T03:40:43.490Z,95.76
2017-12-21T03:43:11.002Z,95.61
2017-12-21T03:45:38.520Z,95.46
2017-12-21T03:48:06.034Z,95.49
2017-12-21T03:50:33.537Z,95.45
2017-12-21T03:53:01.052Z,95.64
2017-12-21T03:55:28.566Z,95.36
2017-12-21T03:57:56.082Z,95.08
2017-12-21T04:00:23.589Z,95.20
2017-12-21T04:02:51.121Z,95.18
2017-12-21T04:05:18.634Z,95.09
2017-12-21T04:07:46.185Z,95.04
2017-12-21T04:10:13.705Z,95.31
2017-12-21T04:12:41.223Z,95.51
2017-12-21T04:15:08.742Z,95.64
2017-12-21T04:17:36.265Z,95.60
2017-12-21T04:20:03.780Z,95.61
2017-12-21T04:22:31.576Z,95.47
2017-12-21T04:24:59.081Z,95.72
2017-12-21T04:27:26.606Z,95.68
2017-12-21T04:29:54.118Z,95.65
2017-12-21T04:32:21.642Z,95.56
2017-12-21T04:34:49.153Z,95.41
2017-12-21T04:37:16.665Z,95.52
2017-12-21T04:39:44.164Z,95.48
2017-12-21T04:42:11.661Z,95.48
2017-12-21T04:44:39.168Z,95.43
2017-12-21T04:47:06.697Z,95.39
2017-12-21T04:49:34.214Z,95.52
2017-12-21T04:52:01.734Z,95.42
2017-12-21T04:54:29.254Z,95.77
2017-12-21T04:56:56.758Z,95.51
2017-12-21T04:59:24.286Z,95.67
2017-12-21T05:01:51.797Z,95.57
2017-12-21T05:04:19.315Z,95.67
2017-12-21T05:06:46.826Z,95.81
2017-12-21T05:09:14.335Z,95.67
2017-12-21T05:11:41.849Z,95.60
2017-12-21T05:14:09.385Z,95.35
2017-12-21T05:16:36.903Z,95.59
2017-12-21T05:19:04.410Z,95.59
2017-12-21T05:21:31.929Z,95.75
2017-12-21T05:23:59.448Z,95.67
2017-12-21T05:26:26.959Z,95.57
2017-12-21T05:28:54.479Z,95.61
2017-12-21T05:31:21.995Z,95.70
2017-12-21T05:33:49.517Z,95.56
2017-12-21T05:36:17.026Z,95.51
2017-12-21T05:38:44.538Z,95.50
2017-12-21T05:41:12.057Z,95.34
2017-12-21T05:43:39.582Z,95.37
2017-12-21T05:46:07.120Z,95.50
2017-12-21T05:48:34.641Z,95.32
2017-12-21T05:51:02.158Z,95.56
2017-12-21T05:53:29.687Z,95.56
2017-12-21T05:55:57.207Z,95.36
2017-12-21T05:58:24.713Z,95.67
2017-12-21T06:00:52.917Z,95.66
2017-12-21T06:03:20.430Z,95.63
2017-12-21T06:05:47.942Z,95.71
2017-12-21T06:08:15.453Z,95.55
2017-12-21T06:10:42.968Z,95.58
2017-12-21T06:13:10.473Z,95.61
2017-12-21T06:15:37.980Z,95.54
2017-12-21T06:18:05.495Z,95.17
2017-12-21T06:20:33.015Z,95.49
2017-12-21T06:23:00.531Z,95.38
2017-12-21T06:25:28.050Z,95.36
2017-12-21T06:27:55.565Z,95.53
2017-12-21T06:30:23.083Z,95.59
2017-12-21T06:32:50.596Z,95.59
2017-12-21T06:35:18.098Z,95.36
2017-12-21T06:37:45.619Z,95.34
2017-12-21T06:40:13.132Z,95.33
2017-12-21T06:42:40.656Z,95.55
2017-12-21T06:45:08.184Z,95.27
2017-12-21T06:47:35.685Z,95.32
2017-12-21T06:50:03.229Z,95.41
2017-12-21T06:52:30.737Z,95.40
2017-12-21T06:54:58.270Z,95.31
2017-12-21T06:57:25.779Z,95.33
2017-12-21T06:59:53.300Z,95.26
2017-12-21T07:02:20.825Z,95.22
2017-12-21T07:04:48.427Z,95.26
2017-12-21T07:07:15.967Z,95.45
2017-12-21T07:09:43.489Z,95.19
2017-12-21T07:12:11.017Z,95.28
2017-12-21T07:14:38.540Z,95.50
2017-12-21T07:17:06.053Z,95.51
2017-12-21T07:19:33.570Z,95.40
2017-12-21T07:22:01.098Z,95.39
2017-12-21T07:24:28.629Z,95.42
2017-12-21T07:26:56.150Z,95.48
2017-12-21T07:29:23.673Z,95.69
2017-12-21T07:31:51.206Z,95.53
2017-12-21T07:34:18.721Z,95.46
2017-12-21T07:36:46.249Z,95.62
2017-12-21T07:39:13.768Z,95.88
2017-12-21T07:41:41.282Z,95.90
2017-12-21T07:44:08.799Z,95.79
2017-12-21T07:46:36.325Z,95.58
2017-12-21T07:49:03.849Z,95.89
2017-12-21T07:51:31.378Z,95.88
2017-12-21T07:53:58.886Z,95.81
2017-12-21T07:56:26.399Z,95.89
2017-12-21T07:58:53.985Z,96.16
2017-12-21T08:01:21.509Z,96.23
2017-12-21T08:03:49.049Z,96.22
2017-12-21T08:06:16.563Z,96.17
2017-12-21T08:08:44.073Z,96.16
2017-12-21T08:11:11.600Z,96.00
2017-12-21T08:13:39.117Z,96.07
2017-12-21T08:16:06.631Z,96.04
2017-12-21T08:18:34.142Z,95.91
2017-12-21T08:21:01.669Z,95.89
2017-12-21T08:23:29.199Z,95.81
2017-12-21T08:25:56.706Z,95.68
2017-12-21T08:28:24.212Z,96.01
2017-12-21T08:30:51.718Z,95.74
2017-12-21T08:33:19.230Z,96.72
2017-12-21T08:35:46.743Z,96.79
2017-12-21T08:38:14.255Z,96.33
2017-12-21T08:40:41.782Z,95.96
2017-12-21T08:43:09.302Z,95.08
2017-12-21T08:45:36.821Z,95.25
2017-12-21T08:48:04.331Z,95.46
2017-12-21T08:50:31.865Z,95.25
2017-12-21T08:52:59.386Z,95.38
2017-12-21T08:55:26.914Z,95.37
2017-12-21T08:57:54.429Z,95.11
2017-12-21T09:00:22.040Z,95.30
2017-12-21T09:02:49.559Z,95.33
2017-12-21T09:05:17.079Z,95.31
2017-12-21T09:07:44.608Z,95.05
2017-12-21T09:10:12.126Z,95.19
2017-12-21T09:12:39.638Z,95.25
2017-12-21T09:15:07.183Z,94.99
2017-12-21T09:17:34.698Z,94.81
2017-12-21T09:20:02.223Z,94.86
2017-12-21T09:22:29.758Z,94.81
2017-12-21T09:24:57.275Z,94.76
2017-12-21T09:27:24.801Z,94.60
2017-12-21T09:29:52.308Z,94.57
2017-12-21T09:32:19.826Z,94.34
2017-12-21T09:34:47.337Z,94.29
2017-12-21T09:37:14.850Z,94.23
2017-12-21T09:39:42.467Z,94.23
2017-12-21T09:42:09.983Z,94.07
2017-12-21T09:44:37.504Z,94.06
2017-12-21T09:47:05.109Z,93.82
2017-12-21T09:49:33.628Z,93.27
2017-12-21T09:52:01.150Z,93.30
2017-12-21T09:54:28.675Z,92.82
2017-12-21T09:56:56.195Z,92.64
2017-12-21T09:59:23.705Z,92.49
2017-12-21T10:01:51.223Z,92.20
2017-12-21T10:04:18.745Z,91.85
2017-12-21T10:06:46.252Z,91.74
2017-12-21T10:09:14.107Z,91.52
2017-12-21T10:11:41.629Z,91.46
2017-12-21T10:14:09.164Z,91.59
2017-12-21T10:16:36.686Z,91.52
2017-12-21T10:19:04.219Z,91.19
2017-12-21T10:21:31.734Z,91.50
2017-12-21T10:24:00.542Z,91.09
2017-12-21T10:26:28.134Z,91.12
2017-12-21T10:28:55.655Z,90.76
2017-12-21T10:31:23.171Z,90.77
2017-12-21T10:33:50.691Z,90.67
2017-12-21T10:36:18.203Z,90.24
2017-12-21T10:38:45.712Z,90.01
2017-12-21T10:41:13.235Z,90.32
2017-12-21T10:43:41.110Z,89.62
2017-12-21T10:46:08.630Z,89.58
2017-12-21T10:48:36.194Z,89.58
2017-12-21T10:51:03.745Z,89.79
2017-12-21T10:53:31.272Z,90.14
2017-12-21T10:55:58.802Z,90.23
2017-12-21T10:58:26.315Z,89.77
2017-12-21T11:00:54.382Z,89.53
2017-12-21T11:03:21.903Z,89.65
2017-12-21T11:05:49.431Z,89.48
2017-12-21T11:08:16.942Z,89.64
2017-12-21T11:10:44.466Z,89.80
2017-12-21T11:13:11.994Z,89.61
2017-12-21T11:15:39.517Z,89.90
2017-12-21T11:18:07.030Z,89.54
2017-12-21T11:20:34.553Z,89.52
2017-12-21T11:23:02.091Z,88.98
2017-12-21T11:25:29.622Z,89.28
2017-12-21T11:27:57.135Z,89.35
2017-12-21T11:30:24.665Z,89.29
2017-12-21T11:32:52.196Z,89.09
2017-12-21T11:35:19.728Z,88.82
2017-12-21T11:37:47.261Z,88.51
2017-12-21T11:40:14.779Z,88.44
2017-12-21T11:42:42.317Z,88.96
2017-12-21T11:45:09.822Z,88.50
2017-12-21T11:47:37.341Z,88.48
2017-12-21T11:50:04.853Z,88.83
2017-12-21T11:52:32.364Z,88.74
2017-12-21T11:54:59.883Z,88.99
2017-12-21T11:57:27.407Z,89.10
2017-12-21T11:59:54.930Z,89.22
2017-12-21T12:02:22.453Z,89.13
2017-12-21T12:04:49.990Z,89.18
2017-12-21T12:07:17.516Z,89.18
2017-12-21T12:09:45.114Z,89.07
2017-12-21T12:12:12.645Z,89.26
2017-12-21T12:14:40.161Z,89.32
2017-12-21T12:17:07.685Z,89.30
2017-12-21T12:19:35.230Z,89.14
2017-12-21T12:22:02.776Z,89.27
2017-12-21T12:24:30.306Z,89.05
2017-12-21T12:26:57.829Z,89.04
2017-12-21T12:29:25.406Z,88.94
2017-12-21T12:31:52.939Z,88.65
2017-12-21T12:34:20.504Z,88.82
2017-12-21T12:36:48.016Z,88.77
2017-12-21T12:39:15.528Z,88.87
2017-12-21T12:41:43.047Z,88.96
2017-12-21T12:44:10.577Z,88.84
2017-12-21T12:46:38.097Z,88.78
2017-12-21T12:49:05.627Z,88.88
2017-12-21T12:51:33.155Z,89.02
2017-12-21T12:54:00.684Z,88.88
2017-12-21T12:56:28.204Z,88.32
2017-12-21T12:58:55.718Z,87.97
2017-12-21T13:01:23.258Z,87.98
2017-12-21T13:03:50.842Z,87.97
2017-12-21T13:06:18.372Z,87.64
2017-12-21T13:08:45.947Z,87.84
2017-12-21T13:11:13.462Z,87.90
2017-12-21T13:13:41.030Z,87.74
2017-12-21T13:16:08.558Z,88.06
2017-12-21T13:18:36.316Z,88.18
2017-12-21T13:21:03.834Z,88.28
2017-12-21T13:23:31.363Z,88.22
2017-12-21T13:25:58.898Z,88.04
2017-12-21T13:28:26.481Z,88.56
2017-12-21T13:30:54.017Z,88.21
2017-12-21T13:33:21.532Z,88.20
2017-12-21T13:35:49.057Z,88.25
2017-12-21T13:38:16.575Z,88.18
2017-12-21T13:40:44.093Z,88.03
2017-12-21T13:43:11.601Z,88.15
2017-12-21T13:45:39.128Z,88.16
2017-12-21T13:48:07.507Z,88.25
2017-12-21T13:50:35.028Z,88.31
2017-12-21T13:53:02.546Z,88.23
2017-12-21T13:55:30.051Z,88.28
2017-12-21T13:57:57.568Z,88.25
2017-12-21T14:00:25.084Z,88.86
2017-12-21T14:02:52.600Z,88.91
2017-12-21T14:05:20.127Z,88.98
2017-12-21T14:07:47.642Z,89.10
2017-12-21T14:10:15.197Z,89.45
2017-12-21T14:12:42.759Z,89.44
2017-12-21T14:15:10.279Z,89.49
2017-12-21T14:17:37.798Z,89.60
2017-12-21T14:20:05.322Z,89.68
2017-12-21T14:22:32.838Z,89.58
2017-12-21T14:25:00.361Z,89.70
2017-12-21T14:27:27.882Z,89.51
2017-12-21T14:29:55.411Z,89.63
2017-12-21T14:32:22.928Z,89.55
2017-12-21T14:34:50.442Z,89.54
2017-12-21T14:37:17.975Z,89.78
2017-12-21T14:39:45.507Z,89.82
2017-12-21T14:42:13.043Z,89.91
2017-12-21T14:44:40.561Z,89.98
2017-12-21T14:47:08.073Z,90.17
2017-12-21T14:49:35.603Z,90.03
2017-12-21T14:52:03.132Z,90.04
2017-12-21T14:54:30.646Z,89.90
2017-12-21T14:56:58.271Z,89.78
2017-12-21T14:59:25.798Z,89.80
2017-12-21T15:01:53.319Z,89.80
2017-12-21T15:04:20.844Z,89.64
2017-12-21T15:06:48.365Z,89.51
2017-12-21T15:09:15.890Z,89.47
2017-12-21T15:11:43.420Z,89.49
2017-12-21T15:14:10.951Z,89.60
2017-12-21T15:16:38.465Z,89.80
2017-12-21T15:19:05.979Z,89.82
2017-12-21T15:21:33.498Z,89.94
2017-12-21T15:24:01.596Z,90.10
2017-12-21T15:26:29.122Z,89.95
2017-12-21T15:28:56.751Z,89.78
2017-12-21T15:31:24.273Z,89.56
2017-12-21T15:33:51.790Z,89.33
2017-12-21T15:36:19.307Z,89.27
2017-12-21T15:38:46.828Z,89.14
2017-12-21T15:41:14.366Z,89.06
2017-12-21T15:43:41.893Z,89.00
2017-12-21T15:46:09.418Z,88.75
2017-12-21T15:48:36.946Z,88.86
2017-12-21T15:51:04.469Z,88.91
2017-12-21T15:53:31.997Z,88.88
2017-12-21T15:55:59.521Z,88.84
2017-12-21T15:58:27.056Z,88.62
2017-12-21T16:00:54.574Z,88.67
2017-12-21T16:03:22.153Z,88.70
2017-12-21T16:05:49.652Z,88.51
2017-12-21T16:08:17.178Z,88.70
2017-12-21T16:10:44.713Z,88.66
2017-12-21T16:13:12.249Z,88.74
2017-12-21T16:15:39.761Z,88.97
2017-12-21T16:18:07.289Z,88.60
2017-12-21T16:20:34.814Z,88.73
2017-12-21T16:23:02.346Z,88.96
2017-12-21T16:25:29.867Z,89.00
2017-12-21T16:27:58.727Z,89.19
2017-12-21T17:52:23.214Z,87.11
2017-12-21T17:54:50.726Z,87.20
2017-12-21T17:57:18.239Z,87.34
2017-12-21T17:59:45.752Z,87.23
2017-12-21T18:02:13.257Z,87.34
2017-12-21T18:04:40.773Z,87.15
2017-12-21T18:07:08.283Z,87.20
2017-12-21T18:09:35.788Z,87.29
2017-12-21T18:12:03.301Z,87.32
2017-12-21T18:14:30.821Z,87.30
2017-12-21T18:16:58.346Z,87.38
2017-12-21T18:19:25.859Z,87.46
2017-12-21T18:21:53.366Z,87.36
2017-12-21T18:24:20.886Z,87.06
2017-12-21T18:26:48.409Z,87.50
2017-12-21T18:29:15.924Z,87.49
2017-12-21T18:31:43.437Z,87.00
2017-12-21T18:34:10.952Z,86.81
2017-12-21T18:36:38.472Z,86.90
2017-12-21T18:39:05.985Z,87.17
2017-12-21T18:41:33.501Z,87.31
2017-12-21T18:44:01.030Z,87.61
2017-12-21T18:46:28.548Z,87.84
2017-12-21T18:48:56.065Z,87.79
2017-12-21T18:51:23.582Z,87.79
2017-12-21T18:53:51.102Z,87.77
2017-12-21T18:56:18.617Z,87.42
2017-12-21T18:58:46.127Z,87.47
2017-12-21T19:01:13.636Z,87.79
2017-12-21T19:03:41.149Z,87.71
2017-12-21T19:06:08.668Z,87.69
2017-12-21T19:08:36.218Z,87.89
2017-12-21T19:11:03.773Z,88.00
2017-12-21T19:13:31.298Z,88.18
2017-12-21T19:15:58.829Z,88.55
2017-12-21T19:18:26.351Z,88.40
2017-12-21T19:20:53.864Z,88.45
2017-12-21T19:23:21.380Z,88.53
2017-12-21T19:25:48.897Z,88.61
2017-12-21T19:28:16.426Z,88.56
2017-12-21T19:30:43.943Z,88.59
2017-12-21T19:33:12.496Z,88.55
2017-12-21T19:35:40.015Z,88.35
2017-12-21T19:38:07.520Z,88.54
2017-12-21T19:40:35.035Z,88.36
2017-12-21T19:43:02.553Z,88.33
2017-12-21T19:45:30.095Z,88.21
2017-12-21T19:47:57.616Z,88.29
2017-12-21T19:50:25.139Z,88.07
2017-12-21T19:52:52.658Z,88.28
2017-12-21T19:55:20.181Z,88.20
2017-12-21T19:57:47.724Z,88.37
2017-12-21T20:00:15.238Z,88.21
2017-12-21T20:02:42.761Z,88.00
2017-12-21T20:05:10.282Z,88.27
2017-12-21T20:07:37.797Z,88.56
2017-12-21T20:10:05.314Z,88.45
2017-12-21T20:12:32.852Z,88.49
2017-12-21T20:15:00.358Z,88.64
2017-12-21T20:17:27.874Z,88.83
2017-12-21T20:19:55.424Z,88.82
2017-12-21T20:22:22.943Z,88.99
2017-12-21T20:24:50.465Z,88.88
2017-12-21T20:27:17.985Z,89.21
2017-12-21T20:29:45.504Z,88.70
2017-12-21T20:32:13.046Z,88.92
2017-12-21T20:34:40.561Z,88.84
2017-12-21T20:37:08.092Z,89.10
2017-12-21T20:39:35.619Z,88.80
2017-12-21T20:42:03.142Z,88.90
2017-12-21T20:44:30.718Z,89.05
2017-12-21T20:46:58.244Z,89.09
2017-12-21T20:49:25.758Z,88.96
2017-12-21T20:51:53.307Z,88.94
2017-12-21T20:54:20.846Z,88.86
2017-12-21T20:56:48.369Z,89.18
2017-12-21T20:59:15.895Z,88.94
2017-12-21T21:01:43.427Z,89.05
2017-12-21T21:04:10.941Z,88.99
2017-12-21T21:06:39.205Z,89.12
2017-12-21T21:09:06.747Z,89.15
2017-12-21T21:11:34.260Z,89.25
2017-12-21T21:14:01.786Z,89.27
2017-12-21T21:16:29.345Z,89.22
2017-12-21T21:18:56.917Z,88.99
2017-12-21T21:21:24.441Z,89.07
2017-12-21T21:23:51.969Z,89.08
2017-12-21T21:26:19.481Z,89.05
2017-12-21T21:28:47.009Z,89.09
2017-12-21T21:31:14.538Z,89.07
2017-12-21T21:33:42.053Z,89.26
2017-12-21T21:36:09.566Z,89.27
2017-12-21T21:38:37.081Z,89.27
2017-12-21T21:41:04.603Z,89.33
2017-12-21T21:43:32.114Z,89.28
2017-12-21T21:45:59.628Z,89.12
2017-12-21T21:48:27.151Z,89.26
2017-12-21T21:50:54.669Z,89.39
2017-12-21T21:53:22.193Z,89.40
2017-12-21T21:55:49.722Z,89.62
2017-12-21T21:58:17.252Z,89.51
2017-12-21T22:00:44.789Z,89.53
2017-12-21T22:03:12.301Z,89.60
2017-12-21T22:05:39.825Z,89.54
2017-12-21T22:08:07.348Z,89.52
2017-12-21T22:10:34.865Z,89.69
2017-12-21T22:13:02.386Z,89.48
2017-12-21T22:15:29.898Z,89.30
2017-12-21T22:17:57.422Z,89.48
2017-12-21T22:20:24.943Z,89.46
2017-12-21T22:22:52.469Z,89.40
2017-12-21T22:25:20.003Z,89.48
2017-12-21T22:27:47.534Z,89.45
2017-12-21T22:30:15.049Z,89.53
2017-12-21T22:32:42.582Z,89.37
2017-12-21T22:35:10.125Z,89.32
2017-12-21T22:37:37.637Z,89.46
2017-12-21T22:40:05.152Z,89.37
2017-12-21T22:42:32.660Z,89.23
2017-12-21T22:45:00.204Z,89.34
2017-12-21T22:47:27.769Z,89.43
2017-12-21T22:49:55.291Z,89.27
2017-12-21T22:52:22.802Z,89.46
2017-12-21T22:54:50.325Z,89.64
2017-12-21T22:57:17.863Z,89.72
2017-12-21T22:59:45.387Z,89.79
2017-12-21T23:02:12.916Z,89.81
2017-12-21T23:04:40.446Z,89.90
2017-12-21T23:07:07.965Z,89.66
2017-12-21T23:09:35.497Z,89.61
2017-12-21T23:12:03.021Z,89.55
2017-12-21T23:14:30.555Z,89.72
2017-12-21T23:16:58.072Z,89.71
2017-12-21T23:19:25.599Z,89.61
2017-12-21T23:21:53.138Z,89.78
2017-12-21T23:24:20.649Z,89.85
2017-12-21T23:26:48.178Z,89.63
2017-12-21T23:29:15.705Z,89.72
2017-12-21T23:31:43.227Z,90.13
2017-12-21T23:34:10.754Z,90.01
2017-12-21T23:36:38.290Z,89.99
2017-12-21T23:39:05.817Z,90.19
2017-12-21T23:41:33.332Z,90.14
2017-12-21T23:44:00.864Z,89.88
2017-12-21T23:46:28.381Z,90.23
